createdAt,value
2022-12-03T00:01:25.900Z,21.10
2022-12-03T00:04:28.955Z,22.10
2022-12-03T00:07:31.934Z,21.70
2022-12-03T00:10:34.932Z,23.00
2022-12-03T00:13:37.922Z,20.80
2022-12-03T00:16:41.059Z,22.10
2022-12-03T00:19:44.000Z,23.00
2022-12-03T00:22:48.880Z,22.80
2022-12-03T00:25:52.061Z,24.10
2022-12-03T00:28:55.023Z,23.10
2022-12-03T00:31:58.043Z,21.90
2022-12-03T00:35:00.974Z,22.00
2022-12-03T00:38:03.924Z,23.70
2022-12-03T00:41:06.994Z,23.60
2022-12-03T00:44:10.398Z,22.50
2022-12-03T00:47:13.495Z,23.60
2022-12-03T00:50:16.721Z,22.80
2022-12-03T00:53:19.890Z,22.30
2022-12-03T00:56:22.922Z,23.60
2022-12-03T00:59:26.106Z,23.20
2022-12-03T01:02:29.031Z,25.70
2022-12-03T01:05:32.070Z,23.00
2022-12-03T01:08:35.131Z,21.40
2022-12-03T01:11:38.025Z,23.70
2022-12-03T01:14:41.025Z,21.40
2022-12-03T01:17:43.979Z,22.70
2022-12-03T01:20:47.091Z,22.80
2022-12-03T01:23:49.975Z,22.10
2022-12-03T01:26:53.029Z,20.10
2022-12-03T01:29:55.921Z,21.90
2022-12-03T01:32:58.866Z,22.60
2022-12-03T01:36:01.815Z,22.20
2022-12-03T01:39:04.978Z,20.50
2022-12-03T01:42:11.891Z,22.80
2022-12-03T01:45:22.270Z,22.00
2022-12-03T01:48:25.344Z,23.10
2022-12-03T01:51:29.985Z,22.30
2022-12-03T01:54:40.241Z,23.10
2022-12-03T01:57:47.605Z,22.20
2022-12-03T02:00:50.849Z,21.50
2022-12-03T02:03:53.776Z,21.10
2022-12-03T02:06:56.772Z,22.80
2022-12-03T02:10:02.520Z,21.40
2022-12-03T02:13:10.335Z,21.50
2022-12-03T02:16:13.623Z,21.60
2022-12-03T02:19:27.858Z,22.50
2022-12-03T02:22:36.260Z,21.60
2022-12-03T02:25:39.493Z,22.30
2022-12-03T02:28:42.656Z,21.90
2022-12-03T02:31:45.699Z,22.80
2022-12-03T02:34:49.565Z,20.80
2022-12-03T02:37:58.191Z,22.40
2022-12-03T02:41:06.233Z,21.20
2022-12-03T02:44:09.865Z,22.80
2022-12-03T02:47:13.190Z,21.00
2022-12-03T02:50:22.118Z,22.80
2022-12-03T02:53:28.944Z,22.10
2022-12-03T02:56:33.144Z,23.00
2022-12-03T02:59:36.123Z,22.50
2022-12-03T03:02:40.714Z,21.60
2022-12-03T03:05:45.083Z,22.50
2022-12-03T03:08:48.261Z,21.60
2022-12-03T03:11:51.197Z,20.80
2022-12-03T03:14:54.579Z,22.30
2022-12-03T03:17:57.808Z,21.70
2022-12-03T03:21:00.932Z,21.00
2022-12-03T03:24:04.970Z,20.90
2022-12-03T03:27:08.041Z,21.40
2022-12-03T03:30:12.333Z,21.70
2022-12-03T03:33:16.547Z,20.50
2022-12-03T03:36:20.372Z,20.10
2022-12-03T03:39:23.486Z,21.60
2022-12-03T03:42:26.574Z,20.90
2022-12-03T03:45:29.944Z,22.60
2022-12-03T03:48:34.725Z,20.80
2022-12-03T03:51:38.668Z,21.40
2022-12-03T03:54:41.825Z,21.10
2022-12-03T03:57:44.806Z,21.00
2022-12-03T04:00:48.174Z,20.50
2022-12-03T04:03:53.732Z,20.90
2022-12-03T04:06:56.758Z,21.60
2022-12-03T04:10:20.656Z,20.30
2022-12-03T04:13:23.656Z,20.90
2022-12-03T04:16:26.815Z,21.10
2022-12-03T04:19:29.817Z,21.50
2022-12-03T04:22:41.934Z,22.30
2022-12-03T04:26:23.275Z,22.70
2022-12-03T04:29:26.310Z,21.50
2022-12-03T04:32:47.919Z,21.80
2022-12-03T04:35:51.042Z,22.00
2022-12-03T04:38:53.972Z,21.40
2022-12-03T04:41:57.696Z,21.10
2022-12-03T04:45:00.663Z,21.40
2022-12-03T04:48:03.800Z,21.50
2022-12-03T04:51:06.707Z,22.40
2022-12-03T04:54:09.764Z,22.20
2022-12-03T04:57:13.258Z,22.60
2022-12-03T05:00:16.561Z,23.30
2022-12-03T05:03:19.525Z,22.00
2022-12-03T05:06:22.787Z,22.70
2022-12-03T05:09:25.842Z,22.00
2022-12-03T05:12:28.830Z,21.80
2022-12-03T05:15:31.756Z,23.10
2022-12-03T05:18:34.776Z,21.40
2022-12-03T05:21:37.724Z,21.40
2022-12-03T05:24:40.755Z,21.20
2022-12-03T05:27:43.766Z,21.20
2022-12-03T05:30:46.795Z,21.50
2022-12-03T05:33:49.864Z,21.30
2022-12-03T05:36:52.862Z,23.20
2022-12-03T05:39:55.840Z,22.40
2022-12-03T05:43:01.161Z,24.10
2022-12-03T05:46:04.199Z,25.00
2022-12-03T05:49:07.214Z,23.10
2022-12-03T05:52:10.198Z,25.40
2022-12-03T05:55:13.839Z,24.00
2022-12-03T05:58:16.795Z,23.00
2022-12-03T06:01:19.823Z,23.70
2022-12-03T06:04:22.816Z,22.60
2022-12-03T06:07:26.658Z,24.00
2022-12-03T06:10:29.783Z,24.10
2022-12-03T06:13:32.843Z,25.00
2022-12-03T06:16:38.827Z,24.00
2022-12-03T06:19:41.837Z,25.40
2022-12-03T06:22:45.475Z,25.90
2022-12-03T06:25:48.497Z,26.20
2022-12-03T06:28:51.422Z,26.50
2022-12-03T06:31:54.389Z,25.90
2022-12-03T06:34:57.390Z,26.10
2022-12-03T06:38:00.463Z,27.10
2022-12-03T06:41:05.115Z,26.40
2022-12-03T06:44:08.055Z,26.80
2022-12-03T06:47:10.997Z,28.50
2022-12-03T06:50:14.146Z,27.70
2022-12-03T06:53:17.208Z,27.90
2022-12-03T06:56:22.449Z,29.20
2022-12-03T06:59:26.133Z,32.50
2022-12-03T07:02:29.187Z,29.80
2022-12-03T07:05:32.251Z,30.60
2022-12-03T07:08:35.507Z,28.10
2022-12-03T07:11:41.435Z,29.80
2022-12-03T07:14:44.354Z,28.60
2022-12-03T07:17:47.285Z,29.10
2022-12-03T07:20:51.599Z,27.40
2022-12-03T07:23:59.525Z,27.20
2022-12-03T07:27:02.865Z,28.90
2022-12-03T07:30:18.740Z,27.60
2022-12-03T07:33:21.831Z,25.40
2022-12-03T07:36:24.922Z,27.70
2022-12-03T07:39:28.170Z,25.90
2022-12-03T07:42:31.165Z,29.90
2022-12-03T07:45:34.070Z,29.80
2022-12-03T07:48:37.007Z,28.10
2022-12-03T07:51:40.345Z,27.10
2022-12-03T07:54:43.246Z,29.00
2022-12-03T07:57:46.338Z,28.80
2022-12-03T08:00:49.353Z,27.30
2022-12-03T08:03:52.631Z,26.20
2022-12-03T08:06:55.706Z,27.90
2022-12-03T08:09:58.716Z,26.30
2022-12-03T08:13:02.964Z,29.70
2022-12-03T08:16:15.167Z,29.10
2022-12-03T08:19:18.547Z,31.60
2022-12-03T08:22:22.408Z,28.70
2022-12-03T08:25:28.577Z,27.80
2022-12-03T08:28:32.061Z,29.80
2022-12-03T08:31:35.077Z,29.10
2022-12-03T08:34:43.688Z,22.90
2022-12-03T08:37:46.749Z,27.90
2022-12-03T08:40:52.104Z,29.00
2022-12-03T08:43:55.257Z,27.10
2022-12-03T08:47:16.400Z,28.10
2022-12-03T08:50:43.072Z,25.70
2022-12-03T08:53:48.487Z,26.10
2022-12-03T08:56:51.777Z,26.60
2022-12-03T08:59:59.978Z,26.90
2022-12-03T09:03:03.189Z,29.60
2022-12-03T09:06:06.491Z,28.80
2022-12-03T09:09:09.562Z,36.70
2022-12-03T09:12:12.497Z,30.30
2022-12-03T09:15:16.515Z,27.20
2022-12-03T09:18:19.520Z,26.80
2022-12-03T09:21:22.560Z,28.80
2022-12-03T09:24:25.556Z,29.60
2022-12-03T09:27:28.685Z,26.90
2022-12-03T09:30:31.943Z,27.20
2022-12-03T09:33:35.324Z,28.80
2022-12-03T09:36:38.311Z,29.50
2022-12-03T09:39:41.279Z,26.30
2022-12-03T09:42:44.757Z,28.30
2022-12-03T09:45:49.215Z,29.00
2022-12-03T09:48:52.560Z,30.30
2022-12-03T09:51:58.668Z,30.00
2022-12-03T09:55:08.034Z,28.20
2022-12-03T09:58:13.814Z,31.30
2022-12-03T10:01:17.895Z,32.10
2022-12-03T10:04:21.407Z,29.30
2022-12-03T10:07:25.955Z,29.30
2022-12-03T10:10:29.143Z,29.90
2022-12-03T10:13:34.567Z,30.70
2022-12-03T10:16:40.413Z,33.00
2022-12-03T10:19:44.746Z,31.00
2022-12-03T10:22:49.006Z,30.00
2022-12-03T10:26:03.026Z,29.60
2022-12-03T10:29:13.346Z,32.50
2022-12-03T10:32:16.339Z,34.50
2022-12-03T10:35:36.362Z,32.40
2022-12-03T10:38:39.315Z,32.50
2022-12-03T10:41:44.451Z,31.80
2022-12-03T10:44:47.462Z,33.70
2022-12-03T10:48:27.456Z,34.90
2022-12-03T10:51:30.980Z,34.90
2022-12-03T10:54:35.524Z,35.90
2022-12-03T10:57:43.711Z,36.80
2022-12-03T11:00:50.380Z,36.30
2022-12-03T11:04:04.745Z,35.70
2022-12-03T11:07:20.161Z,33.70
2022-12-03T11:10:23.838Z,32.20
2022-12-03T11:13:45.362Z,31.30
2022-12-03T11:16:51.455Z,30.80
2022-12-03T11:19:54.735Z,32.70
2022-12-03T11:22:58.964Z,29.60
2022-12-03T11:26:03.129Z,32.10
2022-12-03T11:29:14.087Z,31.00
2022-12-03T11:32:39.222Z,31.80
2022-12-03T11:36:03.878Z,33.10
2022-12-03T11:39:09.564Z,33.80
2022-12-03T11:42:27.632Z,36.40
2022-12-03T11:45:36.805Z,34.60
2022-12-03T11:48:47.424Z,36.10
2022-12-03T11:51:51.142Z,35.20
2022-12-03T11:54:59.703Z,34.60
2022-12-03T11:58:29.672Z,37.60
2022-12-03T12:01:38.527Z,38.60
2022-12-03T12:04:46.780Z,38.70
2022-12-03T12:07:50.919Z,41.20
2022-12-03T12:10:54.279Z,37.00
2022-12-03T12:13:58.584Z,41.30
2022-12-03T12:17:03.724Z,42.90
2022-12-03T12:20:30.399Z,45.60
2022-12-03T12:23:33.465Z,44.00
2022-12-03T12:26:36.366Z,43.50
2022-12-03T12:29:42.331Z,44.50
2022-12-03T12:32:48.157Z,44.90
2022-12-03T12:35:51.338Z,44.10
2022-12-03T12:38:54.315Z,44.40
2022-12-03T12:41:57.963Z,43.50
2022-12-03T12:45:16.360Z,44.30
2022-12-03T12:48:34.296Z,43.80
2022-12-03T12:51:49.390Z,43.90
2022-12-03T12:54:52.402Z,45.10
2022-12-03T12:58:00.006Z,42.70
2022-12-03T13:01:21.455Z,40.70
2022-12-03T13:04:24.970Z,38.80
2022-12-03T13:07:28.249Z,41.40
2022-12-03T13:10:41.967Z,40.60
2022-12-03T13:13:44.937Z,42.00
2022-12-03T13:16:49.843Z,41.40
2022-12-03T13:20:03.684Z,39.90
2022-12-03T13:23:27.399Z,41.40
2022-12-03T13:26:39.790Z,42.30
2022-12-03T13:29:44.118Z,40.00
2022-12-03T13:32:47.035Z,41.70
2022-12-03T13:35:52.582Z,45.10
2022-12-03T13:38:55.539Z,41.30
2022-12-03T13:42:34.598Z,40.40
2022-12-03T13:45:40.463Z,40.50
2022-12-03T13:48:45.293Z,39.10
2022-12-03T13:51:49.303Z,37.20
2022-12-03T13:54:55.155Z,34.90
2022-12-03T13:57:58.239Z,32.00
2022-12-03T14:01:01.284Z,34.00
2022-12-03T14:04:04.525Z,32.20
2022-12-03T14:07:07.485Z,32.60
2022-12-03T14:10:11.748Z,35.20
2022-12-03T14:13:14.792Z,33.90
2022-12-03T14:16:17.810Z,34.70
2022-12-03T14:19:20.774Z,35.40
2022-12-03T14:22:25.378Z,29.60
2022-12-03T14:25:28.434Z,32.90
2022-12-03T14:28:31.437Z,36.60
2022-12-03T14:31:34.401Z,34.60
2022-12-03T14:34:37.418Z,30.40
2022-12-03T14:37:40.315Z,32.50
2022-12-03T14:40:43.260Z,33.70
2022-12-03T14:43:46.207Z,35.00
2022-12-03T14:46:55.378Z,33.30
2022-12-03T14:50:00.003Z,34.80
2022-12-03T14:53:02.954Z,35.00
2022-12-03T14:56:05.853Z,37.30
2022-12-03T14:59:08.842Z,36.20
2022-12-03T15:02:12.473Z,34.50
2022-12-03T15:05:15.688Z,34.30
2022-12-03T15:08:18.766Z,37.20
2022-12-03T15:11:21.770Z,37.10
2022-12-03T15:14:24.676Z,33.20
2022-12-03T15:17:31.652Z,33.80
2022-12-03T15:20:35.716Z,32.50
2022-12-03T15:23:38.819Z,31.30
2022-12-03T15:26:41.720Z,26.60
2022-12-03T15:29:44.636Z,31.90
2022-12-03T15:32:47.695Z,33.30
2022-12-03T15:35:50.586Z,33.30
2022-12-03T15:38:53.701Z,32.90
2022-12-03T15:41:56.617Z,34.50
2022-12-03T15:44:59.514Z,32.60
2022-12-03T15:48:02.904Z,33.30
2022-12-03T15:51:07.045Z,34.60
2022-12-03T15:54:12.263Z,33.50
2022-12-03T15:57:15.710Z,34.80
2022-12-03T16:00:19.046Z,34.00
2022-12-03T16:03:22.013Z,38.50
2022-12-03T16:06:25.172Z,38.50
2022-12-03T16:09:28.156Z,39.30
2022-12-03T16:12:31.187Z,37.80
2022-12-03T16:15:35.239Z,38.50
2022-12-03T16:18:38.314Z,37.20
2022-12-03T16:21:41.231Z,37.70
2022-12-03T16:24:44.206Z,37.00
2022-12-03T16:27:47.534Z,37.90
2022-12-03T16:30:50.487Z,41.20
2022-12-03T16:33:53.471Z,39.40
2022-12-03T16:36:56.417Z,37.80
2022-12-03T16:39:59.446Z,38.50
2022-12-03T16:43:04.437Z,39.50
2022-12-03T16:46:34.164Z,38.50
2022-12-03T16:49:37.147Z,40.10
2022-12-03T16:52:40.112Z,37.20
2022-12-03T16:55:43.108Z,38.00
2022-12-03T16:58:46.134Z,38.90
2022-12-03T17:01:49.063Z,36.80
2022-12-03T17:04:52.057Z,37.50
2022-12-03T17:07:55.093Z,37.00
2022-12-03T17:10:58.151Z,34.70
2022-12-03T17:14:01.142Z,39.00
2022-12-03T17:17:04.222Z,36.90
2022-12-03T17:20:08.278Z,32.80
2022-12-03T17:23:12.535Z,34.90
2022-12-03T17:26:15.520Z,38.30
2022-12-03T17:29:18.650Z,35.20
2022-12-03T17:32:25.378Z,35.40
2022-12-03T17:35:30.793Z,35.90
2022-12-03T17:38:39.035Z,34.30
2022-12-03T17:41:46.410Z,34.80
2022-12-03T17:44:50.065Z,34.60
2022-12-03T17:47:54.155Z,33.80
2022-12-03T17:50:58.140Z,34.00
2022-12-03T17:54:01.066Z,33.90
2022-12-03T17:57:06.349Z,35.70
2022-12-03T18:00:09.844Z,34.40
2022-12-03T18:03:16.589Z,35.70
2022-12-03T18:06:19.539Z,37.30
2022-12-03T18:09:22.694Z,38.60
2022-12-03T18:12:25.745Z,38.40
2022-12-03T18:15:29.076Z,38.10
2022-12-03T18:18:32.569Z,38.80
2022-12-03T18:21:38.947Z,37.10
2022-12-03T18:24:47.596Z,37.00
2022-12-03T18:27:53.345Z,34.20
2022-12-03T18:31:01.667Z,34.70
2022-12-03T18:34:04.611Z,35.80
2022-12-03T18:37:11.896Z,37.50
2022-12-03T18:40:24.659Z,38.10
2022-12-03T18:43:29.757Z,37.40
2022-12-03T18:46:52.889Z,38.10
2022-12-03T18:49:57.826Z,37.30
2022-12-03T18:53:01.412Z,36.70
2022-12-03T18:56:04.612Z,37.50
2022-12-03T18:59:07.834Z,37.80
2022-12-03T19:02:32.469Z,37.80
2022-12-03T19:05:40.333Z,36.80
2022-12-03T19:08:44.216Z,36.50
2022-12-03T19:11:47.271Z,35.80
2022-12-03T19:14:51.138Z,39.10
2022-12-03T19:17:54.162Z,37.40
2022-12-03T19:20:57.418Z,36.90
2022-12-03T19:24:24.305Z,37.10
2022-12-03T19:27:24.375Z,36.60
2022-12-03T19:30:27.335Z,36.50
2022-12-03T19:33:31.244Z,36.80
2022-12-03T19:36:34.551Z,37.10
2022-12-03T19:39:37.538Z,37.20
2022-12-03T19:42:40.562Z,37.30
2022-12-03T19:45:43.527Z,36.50
2022-12-03T19:48:47.000Z,37.00
2022-12-03T19:51:50.462Z,39.00
2022-12-03T19:54:53.503Z,38.30
2022-12-03T19:57:56.626Z,38.40
2022-12-03T20:01:14.764Z,37.40
2022-12-03T20:04:17.741Z,37.50
2022-12-03T20:07:20.844Z,39.10
2022-12-03T20:10:24.017Z,35.70
2022-12-03T20:13:29.822Z,35.80
2022-12-03T20:16:35.789Z,36.10
2022-12-03T20:19:38.934Z,35.40
2022-12-03T20:22:43.352Z,36.00
2022-12-03T20:25:46.311Z,39.30
2022-12-03T20:28:50.098Z,38.70
2022-12-03T20:31:53.096Z,38.00
2022-12-03T20:34:56.142Z,37.70
2022-12-03T20:37:59.073Z,40.80
2022-12-03T20:41:04.129Z,40.30
2022-12-03T20:44:07.914Z,40.90
2022-12-03T20:47:10.885Z,40.60
2022-12-03T20:50:13.785Z,40.30
2022-12-03T20:53:24.746Z,42.40
2022-12-03T20:56:31.845Z,41.40
2022-12-03T20:59:34.850Z,43.70
2022-12-03T21:02:38.250Z,43.80
2022-12-03T21:05:43.825Z,41.10
2022-12-03T21:08:47.504Z,43.80
2022-12-03T21:11:50.589Z,42.70
2022-12-03T21:14:53.576Z,47.30
2022-12-03T21:17:56.556Z,44.00
2022-12-03T21:21:01.968Z,44.30
2022-12-03T21:24:05.376Z,46.60
2022-12-03T21:27:08.515Z,45.40
2022-12-03T21:30:11.873Z,40.90
2022-12-03T21:33:15.055Z,43.80
2022-12-03T21:36:18.168Z,45.70
2022-12-03T21:39:21.123Z,43.80
2022-12-03T21:42:35.573Z,43.00
2022-12-03T21:45:43.076Z,44.00
2022-12-03T21:48:48.466Z,42.40
2022-12-03T21:51:51.626Z,45.40
2022-12-03T21:54:55.147Z,43.70
2022-12-03T21:57:58.420Z,44.40
2022-12-03T22:01:01.713Z,44.80
2022-12-03T22:04:04.867Z,44.30
2022-12-03T22:07:07.941Z,41.40
2022-12-03T22:10:11.823Z,43.60
2022-12-03T22:13:14.846Z,43.10
2022-12-03T22:16:20.210Z,41.50
2022-12-03T22:19:24.507Z,42.80
2022-12-03T22:22:27.434Z,42.10
2022-12-03T22:25:30.708Z,40.00
2022-12-03T22:28:35.267Z,41.90
2022-12-03T22:31:38.405Z,41.10
2022-12-03T22:34:41.740Z,41.70
2022-12-03T22:37:44.705Z,40.50
2022-12-03T22:40:47.724Z,39.70
2022-12-03T22:43:50.723Z,41.70
2022-12-03T22:46:53.775Z,40.60
2022-12-03T22:49:57.158Z,41.20
2022-12-03T22:53:00.235Z,38.80
2022-12-03T22:56:03.225Z,40.50
2022-12-03T22:59:06.854Z,37.30
2022-12-03T23:02:09.952Z,40.60
2022-12-03T23:05:12.970Z,41.40
2022-12-03T23:08:19.592Z,39.80
2022-12-03T23:11:23.388Z,37.60
2022-12-03T23:14:26.343Z,36.50
2022-12-03T23:17:29.335Z,37.80
2022-12-03T23:20:32.333Z,38.60
2022-12-03T23:23:35.341Z,38.60
2022-12-03T23:26:39.484Z,36.00
2022-12-03T23:29:42.454Z,37.10
2022-12-03T23:32:45.582Z,36.60
2022-12-03T23:35:48.607Z,34.10
2022-12-03T23:38:51.654Z,35.90
2022-12-03T23:41:54.666Z,35.40
2022-12-03T23:44:57.657Z,35.00
2022-12-03T23:48:01.158Z,33.40
2022-12-03T23:51:10.322Z,32.50
2022-12-03T23:54:13.368Z,32.10
2022-12-03T23:57:16.332Z,33.70
